sensor_id;sensor_type;location;lat;lon;timestamp;P1;durP1;ratioP1;P2;durP2;ratioP2
6255;SDS011;3161;48.794;9.784;2023-01-24T00:00:53;13.37;;;9.20;;
6255;SDS011;3161;48.794;9.784;2023-01-24T00:03:21;13.80;;;9.87;;
6255;SDS011;3161;48.794;9.784;2023-01-24T00:05:49;17.23;;;9.93;;
6255;SDS011;3161;48.794;9.784;2023-01-24T00:08:17;16.33;;;9.77;;
6255;SDS011;3161;48.794;9.784;2023-01-24T00:10:48;14.70;;;9.43;;
6255;SDS011;3161;48.794;9.784;2023-01-24T00:13:17;13.97;;;9.43;;
6255;SDS011;3161;48.794;9.784;2023-01-24T00:15:45;15.17;;;10.07;;
6255;SDS011;3161;48.794;9.784;2023-01-24T00:18:12;16.07;;;9.50;;
6255;SDS011;3161;48.794;9.784;2023-01-24T00:20:40;15.57;;;10.03;;
6255;SDS011;3161;48.794;9.784;2023-01-24T00:23:07;14.70;;;9.90;;
6255;SDS011;3161;48.794;9.784;2023-01-24T00:25:35;14.40;;;9.80;;
6255;SDS011;3161;48.794;9.784;2023-01-24T00:28:02;16.20;;;10.07;;
6255;SDS011;3161;48.794;9.784;2023-01-24T00:30:30;16.70;;;10.43;;
6255;SDS011;3161;48.794;9.784;2023-01-24T00:32:58;15.40;;;10.10;;
6255;SDS011;3161;48.794;9.784;2023-01-24T00:35:25;14.97;;;9.57;;
6255;SDS011;3161;48.794;9.784;2023-01-24T00:37:53;14.87;;;9.90;;
6255;SDS011;3161;48.794;9.784;2023-01-24T00:40:20;14.13;;;9.70;;
6255;SDS011;3161;48.794;9.784;2023-01-24T00:42:48;15.13;;;9.53;;
6255;SDS011;3161;48.794;9.784;2023-01-24T00:45:17;14.57;;;9.50;;
6255;SDS011;3161;48.794;9.784;2023-01-24T00:47:44;15.93;;;10.50;;
6255;SDS011;3161;48.794;9.784;2023-01-24T00:50:12;13.83;;;9.67;;
6255;SDS011;3161;48.794;9.784;2023-01-24T00:52:39;15.13;;;9.77;;
6255;SDS011;3161;48.794;9.784;2023-01-24T00:55:07;14.03;;;10.00;;
6255;SDS011;3161;48.794;9.784;2023-01-24T00:57:34;17.77;;;10.37;;
6255;SDS011;3161;48.794;9.784;2023-01-24T01:00:02;16.57;;;10.73;;
6255;SDS011;3161;48.794;9.784;2023-01-24T01:02:30;15.03;;;9.70;;
6255;SDS011;3161;48.794;9.784;2023-01-24T01:04:58;17.07;;;10.33;;
6255;SDS011;3161;48.794;9.784;2023-01-24T01:07:25;15.40;;;9.80;;
6255;SDS011;3161;48.794;9.784;2023-01-24T01:09:53;15.90;;;10.73;;
6255;SDS011;3161;48.794;9.784;2023-01-24T01:12:20;13.67;;;9.67;;
6255;SDS011;3161;48.794;9.784;2023-01-24T01:14:48;15.67;;;10.30;;
6255;SDS011;3161;48.794;9.784;2023-01-24T01:17:15;15.37;;;9.87;;
6255;SDS011;3161;48.794;9.784;2023-01-24T01:19:43;15.90;;;9.83;;
6255;SDS011;3161;48.794;9.784;2023-01-24T01:22:11;16.07;;;10.63;;
6255;SDS011;3161;48.794;9.784;2023-01-24T01:24:38;17.43;;;10.77;;
6255;SDS011;3161;48.794;9.784;2023-01-24T01:27:06;15.40;;;11.17;;
6255;SDS011;3161;48.794;9.784;2023-01-24T01:29:33;14.23;;;9.23;;
6255;SDS011;3161;48.794;9.784;2023-01-24T01:32:01;15.73;;;10.10;;
6255;SDS011;3161;48.794;9.784;2023-01-24T01:34:29;15.80;;;10.13;;
6255;SDS011;3161;48.794;9.784;2023-01-24T01:36:57;17.50;;;10.77;;
6255;SDS011;3161;48.794;9.784;2023-01-24T01:39:24;15.70;;;10.50;;
6255;SDS011;3161;48.794;9.784;2023-01-24T01:41:52;16.07;;;9.73;;
6255;SDS011;3161;48.794;9.784;2023-01-24T01:44:21;17.60;;;10.97;;
6255;SDS011;3161;48.794;9.784;2023-01-24T01:47:14;18.77;;;10.83;;
6255;SDS011;3161;48.794;9.784;2023-01-24T01:52:35;18.80;;;11.07;;
6255;SDS011;3161;48.794;9.784;2023-01-24T01:55:01;14.90;;;10.53;;
6255;SDS011;3161;48.794;9.784;2023-01-24T01:57:30;15.53;;;9.67;;
6255;SDS011;3161;48.794;9.784;2023-01-24T02:02:33;17.03;;;10.47;;
6255;SDS011;3161;48.794;9.784;2023-01-24T02:05:04;13.77;;;9.27;;
6255;SDS011;3161;48.794;9.784;2023-01-24T02:10:26;17.33;;;9.57;;
6255;SDS011;3161;48.794;9.784;2023-01-24T02:12:56;14.73;;;9.27;;
6255;SDS011;3161;48.794;9.784;2023-01-24T02:15:24;14.10;;;9.60;;
6255;SDS011;3161;48.794;9.784;2023-01-24T02:18:09;20.07;;;11.27;;
6255;SDS011;3161;48.794;9.784;2023-01-24T02:20:44;15.37;;;9.73;;
6255;SDS011;3161;48.794;9.784;2023-01-24T02:28:34;14.47;;;9.77;;
6255;SDS011;3161;48.794;9.784;2023-01-24T02:31:03;16.63;;;10.23;;
6255;SDS011;3161;48.794;9.784;2023-01-24T02:33:31;18.27;;;10.47;;
6255;SDS011;3161;48.794;9.784;2023-01-24T02:38:50;14.60;;;9.77;;
6255;SDS011;3161;48.794;9.784;2023-01-24T02:41:19;15.50;;;9.47;;
6255;SDS011;3161;48.794;9.784;2023-01-24T02:43:49;15.17;;;9.13;;
6255;SDS011;3161;48.794;9.784;2023-01-24T02:46:20;21.57;;;10.20;;
6255;SDS011;3161;48.794;9.784;2023-01-24T02:48:51;16.30;;;9.77;;
6255;SDS011;3161;48.794;9.784;2023-01-24T02:51:18;15.70;;;10.27;;
6255;SDS011;3161;48.794;9.784;2023-01-24T02:54:03;15.27;;;9.57;;
6255;SDS011;3161;48.794;9.784;2023-01-24T02:56:31;17.60;;;10.33;;
6255;SDS011;3161;48.794;9.784;2023-01-24T02:59:16;16.17;;;10.13;;
6255;SDS011;3161;48.794;9.784;2023-01-24T03:01:44;14.63;;;9.37;;
6255;SDS011;3161;48.794;9.784;2023-01-24T03:04:11;16.93;;;9.73;;
6255;SDS011;3161;48.794;9.784;2023-01-24T03:06:39;17.87;;;10.70;;
6255;SDS011;3161;48.794;9.784;2023-01-24T03:09:07;18.13;;;10.60;;
6255;SDS011;3161;48.794;9.784;2023-01-24T03:11:36;16.73;;;10.37;;
6255;SDS011;3161;48.794;9.784;2023-01-24T03:14:03;17.73;;;10.07;;
6255;SDS011;3161;48.794;9.784;2023-01-24T03:16:49;17.03;;;10.17;;
6255;SDS011;3161;48.794;9.784;2023-01-24T03:19:35;19.40;;;11.50;;
6255;SDS011;3161;48.794;9.784;2023-01-24T03:22:20;14.33;;;9.50;;
6255;SDS011;3161;48.794;9.784;2023-01-24T03:25:06;14.23;;;10.57;;
6255;SDS011;3161;48.794;9.784;2023-01-24T03:27:52;16.23;;;10.50;;
6255;SDS011;3161;48.794;9.784;2023-01-24T03:30:37;18.83;;;10.63;;
6255;SDS011;3161;48.794;9.784;2023-01-24T03:33:23;17.27;;;10.17;;
6255;SDS011;3161;48.794;9.784;2023-01-24T03:36:08;19.33;;;10.63;;
6255;SDS011;3161;48.794;9.784;2023-01-24T03:38:37;17.50;;;10.60;;
6255;SDS011;3161;48.794;9.784;2023-01-24T03:41:23;19.33;;;10.37;;
6255;SDS011;3161;48.794;9.784;2023-01-24T03:43:51;16.87;;;10.40;;
6255;SDS011;3161;48.794;9.784;2023-01-24T03:46:18;18.77;;;10.53;;
6255;SDS011;3161;48.794;9.784;2023-01-24T03:48:46;18.97;;;11.53;;
6255;SDS011;3161;48.794;9.784;2023-01-24T03:51:13;17.47;;;11.03;;
6255;SDS011;3161;48.794;9.784;2023-01-24T03:53:59;18.23;;;11.50;;
6255;SDS011;3161;48.794;9.784;2023-01-24T03:56:26;16.90;;;10.80;;
6255;SDS011;3161;48.794;9.784;2023-01-24T03:58:54;19.20;;;11.00;;
6255;SDS011;3161;48.794;9.784;2023-01-24T04:01:21;17.43;;;10.50;;
6255;SDS011;3161;48.794;9.784;2023-01-24T04:03:49;18.33;;;10.70;;
6255;SDS011;3161;48.794;9.784;2023-01-24T04:06:17;17.13;;;10.73;;
6255;SDS011;3161;48.794;9.784;2023-01-24T04:08:44;15.77;;;10.70;;
6255;SDS011;3161;48.794;9.784;2023-01-24T04:11:12;18.00;;;11.07;;
6255;SDS011;3161;48.794;9.784;2023-01-24T04:13:39;17.70;;;11.77;;
6255;SDS011;3161;48.794;9.784;2023-01-24T04:16:07;17.70;;;10.83;;
6255;SDS011;3161;48.794;9.784;2023-01-24T04:18:36;17.77;;;10.87;;
6255;SDS011;3161;48.794;9.784;2023-01-24T04:21:03;16.83;;;10.80;;
6255;SDS011;3161;48.794;9.784;2023-01-24T04:23:31;15.87;;;10.27;;
6255;SDS011;3161;48.794;9.784;2023-01-24T04:25:59;18.27;;;10.93;;
6255;SDS011;3161;48.794;9.784;2023-01-24T04:28:26;18.20;;;9.93;;
6255;SDS011;3161;48.794;9.784;2023-01-24T04:30:57;15.50;;;10.27;;
6255;SDS011;3161;48.794;9.784;2023-01-24T04:33:26;15.90;;;10.10;;
6255;SDS011;3161;48.794;9.784;2023-01-24T04:35:57;16.23;;;10.40;;
6255;SDS011;3161;48.794;9.784;2023-01-24T04:38:25;14.90;;;10.10;;
6255;SDS011;3161;48.794;9.784;2023-01-24T04:40:56;15.53;;;9.43;;
6255;SDS011;3161;48.794;9.784;2023-01-24T04:43:25;17.63;;;10.47;;
6255;SDS011;3161;48.794;9.784;2023-01-24T04:45:56;17.23;;;9.93;;
6255;SDS011;3161;48.794;9.784;2023-01-24T04:48:24;16.47;;;10.20;;
6255;SDS011;3161;48.794;9.784;2023-01-24T04:50:56;17.53;;;10.43;;
6255;SDS011;3161;48.794;9.784;2023-01-24T04:53:25;17.60;;;11.13;;
6255;SDS011;3161;48.794;9.784;2023-01-24T04:55:59;16.73;;;10.93;;
6255;SDS011;3161;48.794;9.784;2023-01-24T04:58:27;17.13;;;11.23;;
6255;SDS011;3161;48.794;9.784;2023-01-24T05:00:55;15.87;;;9.77;;
6255;SDS011;3161;48.794;9.784;2023-01-24T05:03:22;15.97;;;10.67;;
6255;SDS011;3161;48.794;9.784;2023-01-24T05:05:55;18.03;;;11.10;;
6255;SDS011;3161;48.794;9.784;2023-01-24T05:08:20;17.13;;;10.17;;
6255;SDS011;3161;48.794;9.784;2023-01-24T05:10:49;16.93;;;10.63;;
6255;SDS011;3161;48.794;9.784;2023-01-24T05:13:16;15.37;;;10.20;;
6255;SDS011;3161;48.794;9.784;2023-01-24T05:15:52;18.73;;;10.50;;
6255;SDS011;3161;48.794;9.784;2023-01-24T05:18:17;15.93;;;9.73;;
6255;SDS011;3161;48.794;9.784;2023-01-24T05:20:45;15.07;;;9.80;;
6255;SDS011;3161;48.794;9.784;2023-01-24T05:23:13;15.33;;;9.67;;
6255;SDS011;3161;48.794;9.784;2023-01-24T05:25:40;15.77;;;9.63;;
6255;SDS011;3161;48.794;9.784;2023-01-24T05:28:08;15.20;;;9.20;;
6255;SDS011;3161;48.794;9.784;2023-01-24T05:30:35;15.93;;;10.40;;
6255;SDS011;3161;48.794;9.784;2023-01-24T05:33:03;18.47;;;11.57;;
6255;SDS011;3161;48.794;9.784;2023-01-24T05:35:30;16.13;;;10.57;;
6255;SDS011;3161;48.794;9.784;2023-01-24T05:37:58;18.33;;;10.87;;
6255;SDS011;3161;48.794;9.784;2023-01-24T05:40:26;14.13;;;9.70;;
6255;SDS011;3161;48.794;9.784;2023-01-24T05:42:54;17.37;;;10.83;;
6255;SDS011;3161;48.794;9.784;2023-01-24T05:45:21;15.23;;;10.97;;
6255;SDS011;3161;48.794;9.784;2023-01-24T05:47:49;16.30;;;10.90;;
6255;SDS011;3161;48.794;9.784;2023-01-24T05:50:17;15.57;;;9.40;;
6255;SDS011;3161;48.794;9.784;2023-01-24T05:52:44;13.93;;;10.07;;
6255;SDS011;3161;48.794;9.784;2023-01-24T05:55:12;15.40;;;9.70;;
6255;SDS011;3161;48.794;9.784;2023-01-24T05:57:39;13.63;;;10.10;;
6255;SDS011;3161;48.794;9.784;2023-01-24T06:00:07;16.57;;;10.23;;
6255;SDS011;3161;48.794;9.784;2023-01-24T06:02:35;18.60;;;10.07;;
6255;SDS011;3161;48.794;9.784;2023-01-24T06:05:03;16.93;;;10.27;;
6255;SDS011;3161;48.794;9.784;2023-01-24T06:07:31;22.93;;;10.37;;
6255;SDS011;3161;48.794;9.784;2023-01-24T06:09:59;14.20;;;8.97;;
6255;SDS011;3161;48.794;9.784;2023-01-24T06:12:26;15.83;;;9.33;;
6255;SDS011;3161;48.794;9.784;2023-01-24T06:14:54;15.60;;;9.67;;
6255;SDS011;3161;48.794;9.784;2023-01-24T06:17:21;17.10;;;9.47;;
6255;SDS011;3161;48.794;9.784;2023-01-24T06:19:49;17.20;;;10.07;;
6255;SDS011;3161;48.794;9.784;2023-01-24T06:22:20;17.90;;;10.03;;
6255;SDS011;3161;48.794;9.784;2023-01-24T06:24:50;16.33;;;9.90;;
6255;SDS011;3161;48.794;9.784;2023-01-24T06:27:18;14.87;;;9.80;;
6255;SDS011;3161;48.794;9.784;2023-01-24T06:29:46;15.43;;;9.80;;
6255;SDS011;3161;48.794;9.784;2023-01-24T06:32:21;14.87;;;9.57;;
6255;SDS011;3161;48.794;9.784;2023-01-24T06:38:01;16.80;;;9.03;;
6255;SDS011;3161;48.794;9.784;2023-01-24T06:40:29;13.23;;;8.43;;
6255;SDS011;3161;48.794;9.784;2023-01-24T06:42:57;13.10;;;9.20;;
6255;SDS011;3161;48.794;9.784;2023-01-24T06:45:24;15.30;;;9.67;;
6255;SDS011;3161;48.794;9.784;2023-01-24T06:47:52;17.17;;;11.70;;
6255;SDS011;3161;48.794;9.784;2023-01-24T06:50:21;19.40;;;10.90;;
6255;SDS011;3161;48.794;9.784;2023-01-24T06:52:51;15.00;;;9.30;;
6255;SDS011;3161;48.794;9.784;2023-01-24T06:55:19;15.33;;;9.03;;
6255;SDS011;3161;48.794;9.784;2023-01-24T06:57:46;15.67;;;9.67;;
6255;SDS011;3161;48.794;9.784;2023-01-24T07:00:16;15.47;;;9.67;;
6255;SDS011;3161;48.794;9.784;2023-01-24T07:02:44;13.20;;;8.43;;
6255;SDS011;3161;48.794;9.784;2023-01-24T07:05:11;14.93;;;9.43;;
6255;SDS011;3161;48.794;9.784;2023-01-24T07:07:39;15.70;;;9.40;;
6255;SDS011;3161;48.794;9.784;2023-01-24T07:10:07;16.53;;;10.23;;
6255;SDS011;3161;48.794;9.784;2023-01-24T07:12:35;15.73;;;9.27;;
6255;SDS011;3161;48.794;9.784;2023-01-24T07:15:03;12.73;;;8.50;;
6255;SDS011;3161;48.794;9.784;2023-01-24T07:17:31;14.40;;;8.90;;
6255;SDS011;3161;48.794;9.784;2023-01-24T07:19:59;15.47;;;9.10;;
6255;SDS011;3161;48.794;9.784;2023-01-24T07:22:27;13.50;;;9.67;;
6255;SDS011;3161;48.794;9.784;2023-01-24T07:24:55;14.60;;;8.43;;
6255;SDS011;3161;48.794;9.784;2023-01-24T07:27:24;14.50;;;9.00;;
6255;SDS011;3161;48.794;9.784;2023-01-24T07:29:52;18.27;;;9.20;;
6255;SDS011;3161;48.794;9.784;2023-01-24T07:32:19;17.67;;;10.20;;
6255;SDS011;3161;48.794;9.784;2023-01-24T07:34:47;13.23;;;8.07;;
6255;SDS011;3161;48.794;9.784;2023-01-24T07:37:15;15.03;;;9.17;;
6255;SDS011;3161;48.794;9.784;2023-01-24T07:39:44;16.23;;;9.27;;
6255;SDS011;3161;48.794;9.784;2023-01-24T07:42:11;14.93;;;9.53;;
6255;SDS011;3161;48.794;9.784;2023-01-24T07:44:39;16.20;;;9.07;;
6255;SDS011;3161;48.794;9.784;2023-01-24T07:47:06;17.60;;;10.67;;
6255;SDS011;3161;48.794;9.784;2023-01-24T07:49:34;15.07;;;8.90;;
6255;SDS011;3161;48.794;9.784;2023-01-24T07:52:01;17.77;;;9.43;;
6255;SDS011;3161;48.794;9.784;2023-01-24T07:54:29;16.40;;;9.47;;
6255;SDS011;3161;48.794;9.784;2023-01-24T07:56:56;15.40;;;9.23;;
6255;SDS011;3161;48.794;9.784;2023-01-24T07:59:24;14.07;;;8.87;;
6255;SDS011;3161;48.794;9.784;2023-01-24T08:01:52;12.97;;;8.50;;
6255;SDS011;3161;48.794;9.784;2023-01-24T08:04:20;14.37;;;9.03;;
6255;SDS011;3161;48.794;9.784;2023-01-24T08:06:48;13.20;;;8.43;;
6255;SDS011;3161;48.794;9.784;2023-01-24T08:09:34;14.03;;;8.33;;
6255;SDS011;3161;48.794;9.784;2023-01-24T08:12:01;17.17;;;8.50;;
6255;SDS011;3161;48.794;9.784;2023-01-24T08:14:30;13.67;;;8.77;;
6255;SDS011;3161;48.794;9.784;2023-01-24T08:16:57;14.47;;;9.30;;
6255;SDS011;3161;48.794;9.784;2023-01-24T08:19:25;13.93;;;8.77;;
6255;SDS011;3161;48.794;9.784;2023-01-24T08:21:53;17.33;;;9.93;;
6255;SDS011;3161;48.794;9.784;2023-01-24T08:24:20;15.47;;;9.03;;
6255;SDS011;3161;48.794;9.784;2023-01-24T08:26:48;14.50;;;9.67;;
6255;SDS011;3161;48.794;9.784;2023-01-24T08:29:16;13.10;;;8.63;;
6255;SDS011;3161;48.794;9.784;2023-01-24T08:31:44;18.63;;;9.73;;
6255;SDS011;3161;48.794;9.784;2023-01-24T08:34:13;13.67;;;9.17;;
6255;SDS011;3161;48.794;9.784;2023-01-24T08:36:41;16.40;;;9.57;;
6255;SDS011;3161;48.794;9.784;2023-01-24T08:39:08;13.93;;;8.60;;
6255;SDS011;3161;48.794;9.784;2023-01-24T08:41:36;16.73;;;8.67;;
6255;SDS011;3161;48.794;9.784;2023-01-24T08:44:05;16.80;;;9.50;;
6255;SDS011;3161;48.794;9.784;2023-01-24T08:46:33;14.17;;;9.20;;
6255;SDS011;3161;48.794;9.784;2023-01-24T08:49:02;14.67;;;9.07;;
6255;SDS011;3161;48.794;9.784;2023-01-24T08:51:30;14.37;;;8.77;;
6255;SDS011;3161;48.794;9.784;2023-01-24T08:53:57;12.17;;;7.77;;
6255;SDS011;3161;48.794;9.784;2023-01-24T08:56:25;15.43;;;9.30;;
6255;SDS011;3161;48.794;9.784;2023-01-24T08:58:52;17.00;;;8.77;;
6255;SDS011;3161;48.794;9.784;2023-01-24T09:01:20;17.20;;;8.70;;
6255;SDS011;3161;48.794;9.784;2023-01-24T09:03:47;14.37;;;8.57;;
6255;SDS011;3161;48.794;9.784;2023-01-24T09:06:15;16.20;;;9.20;;
6255;SDS011;3161;48.794;9.784;2023-01-24T09:08:43;11.43;;;7.40;;
6255;SDS011;3161;48.794;9.784;2023-01-24T09:11:11;16.80;;;8.77;;
6255;SDS011;3161;48.794;9.784;2023-01-24T09:13:39;12.97;;;7.77;;
6255;SDS011;3161;48.794;9.784;2023-01-24T09:16:07;13.13;;;8.00;;
6255;SDS011;3161;48.794;9.784;2023-01-24T09:18:34;11.87;;;7.80;;
6255;SDS011;3161;48.794;9.784;2023-01-24T09:21:02;11.83;;;8.03;;
6255;SDS011;3161;48.794;9.784;2023-01-24T09:23:30;11.87;;;7.90;;
6255;SDS011;3161;48.794;9.784;2023-01-24T09:25:58;14.80;;;8.23;;
6255;SDS011;3161;48.794;9.784;2023-01-24T09:28:25;12.70;;;8.07;;
6255;SDS011;3161;48.794;9.784;2023-01-24T09:30:53;14.20;;;8.43;;
6255;SDS011;3161;48.794;9.784;2023-01-24T09:33:21;12.30;;;8.40;;
6255;SDS011;3161;48.794;9.784;2023-01-24T09:36:00;10.77;;;7.60;;
6255;SDS011;3161;48.794;9.784;2023-01-24T09:38:26;13.07;;;8.23;;
6255;SDS011;3161;48.794;9.784;2023-01-24T09:40:56;12.17;;;7.83;;
6255;SDS011;3161;48.794;9.784;2023-01-24T09:49:00;10.63;;;7.43;;
6255;SDS011;3161;48.794;9.784;2023-01-24T09:51:47;11.27;;;7.30;;
6255;SDS011;3161;48.794;9.784;2023-01-24T09:54:20;12.67;;;7.67;;
6255;SDS011;3161;48.794;9.784;2023-01-24T09:56:46;10.73;;;6.80;;
6255;SDS011;3161;48.794;9.784;2023-01-24T09:59:22;11.43;;;7.30;;
6255;SDS011;3161;48.794;9.784;2023-01-24T10:01:52;9.97;;;6.53;;
6255;SDS011;3161;48.794;9.784;2023-01-24T10:04:20;13.67;;;7.80;;
6255;SDS011;3161;48.794;9.784;2023-01-24T10:09:36;11.57;;;7.23;;
6255;SDS011;3161;48.794;9.784;2023-01-24T10:17:50;11.53;;;7.00;;
6255;SDS011;3161;48.794;9.784;2023-01-24T10:20:40;11.20;;;6.83;;
6255;SDS011;3161;48.794;9.784;2023-01-24T10:23:16;12.00;;;7.53;;
6255;SDS011;3161;48.794;9.784;2023-01-24T10:25:50;12.30;;;7.33;;
6255;SDS011;3161;48.794;9.784;2023-01-24T10:28:32;10.60;;;7.67;;
6255;SDS011;3161;48.794;9.784;2023-01-24T10:31:09;10.93;;;7.37;;
6255;SDS011;3161;48.794;9.784;2023-01-24T10:33:48;10.57;;;6.93;;
6255;SDS011;3161;48.794;9.784;2023-01-24T10:39:09;13.60;;;6.67;;
6255;SDS011;3161;48.794;9.784;2023-01-24T10:41:37;8.27;;;6.20;;
6255;SDS011;3161;48.794;9.784;2023-01-24T10:44:15;13.30;;;7.23;;
6255;SDS011;3161;48.794;9.784;2023-01-24T10:50:00;11.30;;;7.03;;
6255;SDS011;3161;48.794;9.784;2023-01-24T10:52:28;14.60;;;8.10;;
6255;SDS011;3161;48.794;9.784;2023-01-24T10:54:58;11.47;;;7.27;;
6255;SDS011;3161;48.794;9.784;2023-01-24T10:57:35;14.70;;;8.88;;
6255;SDS011;3161;48.794;9.784;2023-01-24T11:03:01;14.07;;;8.10;;
6255;SDS011;3161;48.794;9.784;2023-01-24T11:05:36;11.07;;;6.87;;
6255;SDS011;3161;48.794;9.784;2023-01-24T11:08:10;11.73;;;6.97;;
6255;SDS011;3161;48.794;9.784;2023-01-24T11:10:44;13.23;;;6.93;;
6255;SDS011;3161;48.794;9.784;2023-01-24T11:15:48;12.53;;;8.13;;
6255;SDS011;3161;48.794;9.784;2023-01-24T11:18:25;12.67;;;6.93;;
6255;SDS011;3161;48.794;9.784;2023-01-24T11:23:42;10.93;;;7.00;;
6255;SDS011;3161;48.794;9.784;2023-01-24T11:26:21;11.13;;;6.70;;
6255;SDS011;3161;48.794;9.784;2023-01-24T11:31:48;15.17;;;6.57;;
6255;SDS011;3161;48.794;9.784;2023-01-24T11:34:35;9.40;;;6.10;;
6255;SDS011;3161;48.794;9.784;2023-01-24T11:40:00;11.23;;;7.20;;
6255;SDS011;3161;48.794;9.784;2023-01-24T11:42:49;11.33;;;6.57;;
6255;SDS011;3161;48.794;9.784;2023-01-24T11:56:03;10.80;;;6.60;;
6255;SDS011;3161;48.794;9.784;2023-01-24T11:58:55;12.37;;;6.53;;
6255;SDS011;3161;48.794;9.784;2023-01-24T12:01:33;11.37;;;6.93;;
6255;SDS011;3161;48.794;9.784;2023-01-24T12:07:01;9.47;;;5.90;;
6255;SDS011;3161;48.794;9.784;2023-01-24T12:09:41;10.63;;;6.10;;
6255;SDS011;3161;48.794;9.784;2023-01-24T12:12:25;10.20;;;6.13;;
6255;SDS011;3161;48.794;9.784;2023-01-24T12:15:00;13.55;;;8.05;;
6255;SDS011;3161;48.794;9.784;2023-01-24T12:23:08;11.23;;;5.83;;
6255;SDS011;3161;48.794;9.784;2023-01-24T12:25:48;10.13;;;6.10;;
6255;SDS011;3161;48.794;9.784;2023-01-24T12:28:23;10.07;;;5.83;;
6255;SDS011;3161;48.794;9.784;2023-01-24T12:30:49;11.87;;;5.90;;
6255;SDS011;3161;48.794;9.784;2023-01-24T12:33:22;10.97;;;6.13;;
6255;SDS011;3161;48.794;9.784;2023-01-24T12:39:12;10.57;;;5.87;;
6255;SDS011;3161;48.794;9.784;2023-01-24T12:42:01;11.57;;;6.70;;
6255;SDS011;3161;48.794;9.784;2023-01-24T12:44:33;13.43;;;6.10;;
6255;SDS011;3161;48.794;9.784;2023-01-24T12:52:47;15.23;;;7.23;;
6255;SDS011;3161;48.794;9.784;2023-01-24T12:58:13;12.57;;;7.03;;
6255;SDS011;3161;48.794;9.784;2023-01-24T13:00:54;10.87;;;7.07;;
6255;SDS011;3161;48.794;9.784;2023-01-24T13:06:19;12.37;;;7.27;;
6255;SDS011;3161;48.794;9.784;2023-01-24T13:08:48;11.23;;;6.57;;
6255;SDS011;3161;48.794;9.784;2023-01-24T13:11:31;8.43;;;6.40;;
6255;SDS011;3161;48.794;9.784;2023-01-24T13:14:11;8.43;;;5.90;;
6255;SDS011;3161;48.794;9.784;2023-01-24T13:25:35;7.50;;;5.67;;
6255;SDS011;3161;48.794;9.784;2023-01-24T13:30:46;11.33;;;6.53;;
6255;SDS011;3161;48.794;9.784;2023-01-24T13:33:18;8.63;;;6.23;;
6255;SDS011;3161;48.794;9.784;2023-01-24T13:35:48;10.63;;;6.00;;
6255;SDS011;3161;48.794;9.784;2023-01-24T13:38:25;9.20;;;6.07;;
6255;SDS011;3161;48.794;9.784;2023-01-24T13:40:58;9.87;;;6.70;;
6255;SDS011;3161;48.794;9.784;2023-01-24T13:51:58;10.30;;;6.53;;
6255;SDS011;3161;48.794;9.784;2023-01-24T13:54:39;9.23;;;6.30;;
6255;SDS011;3161;48.794;9.784;2023-01-24T14:00:00;8.00;;;6.23;;
6255;SDS011;3161;48.794;9.784;2023-01-24T14:02:42;8.63;;;6.00;;
6255;SDS011;3161;48.794;9.784;2023-01-24T14:07:59;9.00;;;6.20;;
6255;SDS011;3161;48.794;9.784;2023-01-24T14:10:33;9.03;;;6.80;;
6255;SDS011;3161;48.794;9.784;2023-01-24T14:18:59;13.27;;;7.63;;
6255;SDS011;3161;48.794;9.784;2023-01-24T14:21:33;10.40;;;6.40;;
6255;SDS011;3161;48.794;9.784;2023-01-24T14:24:20;12.10;;;6.80;;
6255;SDS011;3161;48.794;9.784;2023-01-24T14:26:52;11.93;;;7.10;;
6255;SDS011;3161;48.794;9.784;2023-01-24T14:29:22;10.80;;;6.33;;
6255;SDS011;3161;48.794;9.784;2023-01-24T14:32:05;10.13;;;6.87;;
6255;SDS011;3161;48.794;9.784;2023-01-24T14:34:44;10.40;;;6.63;;
6255;SDS011;3161;48.794;9.784;2023-01-24T14:37:11;11.97;;;7.10;;
6255;SDS011;3161;48.794;9.784;2023-01-24T14:39:39;10.73;;;6.93;;
6255;SDS011;3161;48.794;9.784;2023-01-24T14:42:12;9.43;;;6.43;;
6255;SDS011;3161;48.794;9.784;2023-01-24T14:44:58;10.93;;;6.37;;
6255;SDS011;3161;48.794;9.784;2023-01-24T14:47:25;10.57;;;6.27;;
6255;SDS011;3161;48.794;9.784;2023-01-24T14:49:57;11.93;;;6.50;;
6255;SDS011;3161;48.794;9.784;2023-01-24T14:52:26;12.37;;;6.30;;
6255;SDS011;3161;48.794;9.784;2023-01-24T14:54:56;11.60;;;7.73;;
6255;SDS011;3161;48.794;9.784;2023-01-24T14:57:26;10.53;;;6.20;;
6255;SDS011;3161;48.794;9.784;2023-01-24T15:00:03;11.97;;;6.93;;
6255;SDS011;3161;48.794;9.784;2023-01-24T15:02:34;15.40;;;7.33;;
6255;SDS011;3161;48.794;9.784;2023-01-24T15:05:12;9.73;;;6.73;;
6255;SDS011;3161;48.794;9.784;2023-01-24T15:07:45;11.37;;;7.00;;
6255;SDS011;3161;48.794;9.784;2023-01-24T15:10:13;11.57;;;7.50;;
6255;SDS011;3161;48.794;9.784;2023-01-24T15:12:41;16.07;;;7.90;;
6255;SDS011;3161;48.794;9.784;2023-01-24T15:15:15;11.37;;;7.23;;
6255;SDS011;3161;48.794;9.784;2023-01-24T15:17:44;10.70;;;7.23;;
6255;SDS011;3161;48.794;9.784;2023-01-24T15:20:15;9.27;;;6.67;;
6255;SDS011;3161;48.794;9.784;2023-01-24T15:22:47;12.17;;;7.27;;
6255;SDS011;3161;48.794;9.784;2023-01-24T15:25:19;13.93;;;7.83;;
6255;SDS011;3161;48.794;9.784;2023-01-24T15:27:48;12.57;;;7.60;;
6255;SDS011;3161;48.794;9.784;2023-01-24T15:32:47;11.30;;;7.83;;
6255;SDS011;3161;48.794;9.784;2023-01-24T15:40:53;13.93;;;8.23;;
6255;SDS011;3161;48.794;9.784;2023-01-24T15:43:25;12.17;;;8.03;;
6255;SDS011;3161;48.794;9.784;2023-01-24T15:46:21;13.13;;;7.77;;
6255;SDS011;3161;48.794;9.784;2023-01-24T15:49:22;11.90;;;8.03;;
6255;SDS011;3161;48.794;9.784;2023-01-24T15:52:12;12.73;;;7.70;;
6255;SDS011;3161;48.794;9.784;2023-01-24T15:54:42;13.60;;;8.40;;
6255;SDS011;3161;48.794;9.784;2023-01-24T15:57:17;12.63;;;8.20;;
6255;SDS011;3161;48.794;9.784;2023-01-24T16:00:18;17.27;;;8.90;;
6255;SDS011;3161;48.794;9.784;2023-01-24T16:02:38;11.90;;;8.13;;
6255;SDS011;3161;48.794;9.784;2023-01-24T16:05:13;13.37;;;8.37;;
6255;SDS011;3161;48.794;9.784;2023-01-24T16:07:41;13.07;;;8.73;;
6255;SDS011;3161;48.794;9.784;2023-01-24T16:10:15;14.50;;;8.93;;
6255;SDS011;3161;48.794;9.784;2023-01-24T16:12:43;13.37;;;8.33;;
6255;SDS011;3161;48.794;9.784;2023-01-24T16:15:16;12.37;;;8.27;;
6255;SDS011;3161;48.794;9.784;2023-01-24T16:17:47;18.43;;;8.80;;
6255;SDS011;3161;48.794;9.784;2023-01-24T16:22:50;14.87;;;9.70;;
6255;SDS011;3161;48.794;9.784;2023-01-24T16:25:18;16.70;;;9.80;;
6255;SDS011;3161;48.794;9.784;2023-01-24T16:27:47;13.73;;;8.37;;
6255;SDS011;3161;48.794;9.784;2023-01-24T16:30:18;16.27;;;9.73;;
6255;SDS011;3161;48.794;9.784;2023-01-24T16:32:50;21.03;;;9.30;;
6255;SDS011;3161;48.794;9.784;2023-01-24T16:35:19;12.67;;;8.67;;
6255;SDS011;3161;48.794;9.784;2023-01-24T16:37:47;13.63;;;8.30;;
6255;SDS011;3161;48.794;9.784;2023-01-24T16:40:15;17.53;;;10.03;;
6255;SDS011;3161;48.794;9.784;2023-01-24T16:42:44;17.03;;;8.80;;
6255;SDS011;3161;48.794;9.784;2023-01-24T16:45:17;15.43;;;9.43;;
6255;SDS011;3161;48.794;9.784;2023-01-24T16:47:46;19.47;;;10.47;;
6255;SDS011;3161;48.794;9.784;2023-01-24T16:50:13;25.43;;;9.80;;
6255;SDS011;3161;48.794;9.784;2023-01-24T16:52:42;15.60;;;9.37;;
6255;SDS011;3161;48.794;9.784;2023-01-24T16:55:09;16.33;;;9.80;;
6255;SDS011;3161;48.794;9.784;2023-01-24T16:57:37;21.35;;;12.85;;
6255;SDS011;3161;48.794;9.784;2023-01-24T17:00:06;19.57;;;11.30;;
6255;SDS011;3161;48.794;9.784;2023-01-24T17:02:38;16.83;;;10.30;;
6255;SDS011;3161;48.794;9.784;2023-01-24T17:05:07;18.20;;;9.63;;
6255;SDS011;3161;48.794;9.784;2023-01-24T17:07:36;14.23;;;9.70;;
6255;SDS011;3161;48.794;9.784;2023-01-24T17:10:03;15.33;;;9.80;;
6255;SDS011;3161;48.794;9.784;2023-01-24T17:12:32;17.43;;;10.20;;
6255;SDS011;3161;48.794;9.784;2023-01-24T17:14:59;20.13;;;11.53;;
6255;SDS011;3161;48.794;9.784;2023-01-24T17:17:27;21.60;;;12.13;;
6255;SDS011;3161;48.794;9.784;2023-01-24T17:19:54;17.90;;;11.30;;
6255;SDS011;3161;48.794;9.784;2023-01-24T17:22:22;29.57;;;11.83;;
6255;SDS011;3161;48.794;9.784;2023-01-24T17:24:49;15.90;;;10.13;;
6255;SDS011;3161;48.794;9.784;2023-01-24T17:27:17;20.43;;;10.90;;
6255;SDS011;3161;48.794;9.784;2023-01-24T17:29:45;19.23;;;10.73;;